createdAt,value
2022-10-03T04:00:30.337Z,10.67
2022-10-03T04:05:30.276Z,10.64
2022-10-03T04:10:30.198Z,10.51
2022-10-03T04:15:37.206Z,10.55
2022-10-03T04:20:30.101Z,10.58
2022-10-03T04:25:30.053Z,10.79
2022-10-03T04:30:30.004Z,10.75
2022-10-03T04:35:29.942Z,10.69
2022-10-03T04:40:29.886Z,10.72
2022-10-03T04:45:29.913Z,10.77
2022-10-03T04:50:29.787Z,10.87
2022-10-03T04:55:29.729Z,10.89
2022-10-03T05:00:29.671Z,11.12
2022-10-03T05:05:29.625Z,11.18
2022-10-03T05:10:29.545Z,11.49
2022-10-03T05:15:29.525Z,11.53
2022-10-03T05:20:29.451Z,11.45
2022-10-03T05:25:29.394Z,11.17
2022-10-03T05:30:29.375Z,11.53
2022-10-03T05:35:29.313Z,11.66
2022-10-03T05:40:29.236Z,11.85
2022-10-03T05:45:29.203Z,11.60
2022-10-03T05:50:29.131Z,11.64
2022-10-03T05:55:29.087Z,11.71
2022-10-03T06:00:29.053Z,11.75
2022-10-03T06:05:28.951Z,11.82
2022-10-03T06:10:28.908Z,11.95
2022-10-03T06:15:28.877Z,11.99
2022-10-03T06:20:28.803Z,12.14
2022-10-03T06:25:28.749Z,12.30
2022-10-03T06:30:28.826Z,12.39
2022-10-03T06:35:28.662Z,12.78
2022-10-03T06:40:28.666Z,12.93
2022-10-03T06:45:30.952Z,13.08
2022-10-03T06:50:28.507Z,13.03
2022-10-03T06:55:28.450Z,13.16
2022-10-03T07:00:28.377Z,13.13
2022-10-03T07:05:28.319Z,13.19
2022-10-03T07:10:28.266Z,13.34
2022-10-03T07:15:50.111Z,13.60
2022-10-03T07:20:29.157Z,13.49
2022-10-03T07:25:28.118Z,13.51
2022-10-03T07:30:28.037Z,13.87
2022-10-03T07:35:28.015Z,14.00
2022-10-03T07:40:27.945Z,14.07
2022-10-03T07:45:27.881Z,14.03
2022-10-03T07:50:27.961Z,14.57
2022-10-03T07:55:27.794Z,15.51
2022-10-03T08:00:27.726Z,15.61
2022-10-03T08:05:27.667Z,15.50
2022-10-03T08:10:27.609Z,15.28
2022-10-03T08:15:27.572Z,15.61
2022-10-03T08:20:27.500Z,15.03
2022-10-03T08:25:27.446Z,15.27
2022-10-03T08:30:27.391Z,15.52
2022-10-03T08:35:27.357Z,15.41
2022-10-03T08:40:27.281Z,15.71
2022-10-03T08:45:27.228Z,15.79
2022-10-03T08:50:27.320Z,15.63
2022-10-03T08:55:27.227Z,16.28
2022-10-03T09:00:27.059Z,17.32
2022-10-03T09:05:27.002Z,17.53
2022-10-03T09:10:26.945Z,17.51
2022-10-03T09:15:26.930Z,17.66
2022-10-03T09:20:26.836Z,17.65
2022-10-03T09:25:26.789Z,17.62
2022-10-03T09:30:26.732Z,17.28
2022-10-03T09:35:26.698Z,17.14
2022-10-03T09:40:26.620Z,17.66
2022-10-03T09:45:26.692Z,17.71
2022-10-03T09:50:26.508Z,18.30
2022-10-03T09:55:26.478Z,18.54
2022-10-03T10:00:26.400Z,18.40
2022-10-03T10:05:26.352Z,18.31
2022-10-03T10:10:26.290Z,18.63
2022-10-03T10:15:26.256Z,18.74
2022-10-03T10:20:33.419Z,18.77
2022-10-03T10:25:26.286Z,17.81
2022-10-03T10:30:26.069Z,18.28
2022-10-03T10:35:26.039Z,18.75
2022-10-03T10:40:25.962Z,19.18
2022-10-03T10:45:25.901Z,18.76
2022-10-03T10:50:25.866Z,18.57
2022-10-03T10:55:25.814Z,18.78
2022-10-03T11:00:25.788Z,19.28
2022-10-03T11:05:25.689Z,18.91
2022-10-03T11:10:25.638Z,19.15
2022-10-03T11:15:25.683Z,18.63
2022-10-03T11:20:25.535Z,19.04
2022-10-03T11:25:25.477Z,19.19
2022-10-03T11:30:25.420Z,18.66
2022-10-03T11:35:25.386Z,18.73
2022-10-03T11:40:25.318Z,18.89
2022-10-03T11:45:25.291Z,18.96
2022-10-03T11:50:25.217Z,19.60
2022-10-03T11:55:25.172Z,19.65
2022-10-03T12:00:25.102Z,19.48
2022-10-03T12:05:25.051Z,19.17
2022-10-03T12:10:24.989Z,19.18
2022-10-03T12:15:24.958Z,19.19
2022-10-03T12:20:24.888Z,20.33
2022-10-03T12:25:24.845Z,20.43
2022-10-03T12:30:24.775Z,20.25
2022-10-03T12:35:24.739Z,20.23
2022-10-03T12:40:24.673Z,20.72
2022-10-03T12:45:24.662Z,20.75
2022-10-03T12:50:24.555Z,21.20
2022-10-03T12:55:24.525Z,21.40
2022-10-03T13:00:24.448Z,21.66
2022-10-03T13:05:24.412Z,21.43
2022-10-03T13:10:24.343Z,22.08
2022-10-03T13:15:24.306Z,21.48
2022-10-03T13:20:24.231Z,21.15
2022-10-03T13:25:24.204Z,20.28
2022-10-03T13:30:24.127Z,20.04
2022-10-03T13:35:24.088Z,20.18
2022-10-03T13:40:24.015Z,19.94
2022-10-03T13:45:23.969Z,19.68
2022-10-03T13:50:23.902Z,19.22
2022-10-03T13:55:23.947Z,19.14
2022-10-03T14:00:23.794Z,19.31
2022-10-03T14:05:23.826Z,19.17
2022-10-03T14:10:23.683Z,18.85
2022-10-03T14:15:23.647Z,18.80
2022-10-03T14:20:23.576Z,18.93
2022-10-03T14:25:23.517Z,18.75
2022-10-03T14:30:23.466Z,18.90
2022-10-03T14:35:23.436Z,18.67
2022-10-03T14:40:23.363Z,18.70
2022-10-03T14:45:23.301Z,18.63
2022-10-03T14:50:23.253Z,18.62
2022-10-03T14:55:27.578Z,18.66
2022-10-03T15:00:24.156Z,18.64
2022-10-03T15:05:23.080Z,18.78
2022-10-03T15:10:23.023Z,18.90
2022-10-03T15:15:22.990Z,18.97
2022-10-03T15:20:22.937Z,18.97
2022-10-03T15:25:22.855Z,19.02
2022-10-03T15:30:23.666Z,18.99
2022-10-03T15:35:22.770Z,18.95
2022-10-03T15:40:22.959Z,18.84
2022-10-03T15:45:22.637Z,18.74
2022-10-03T15:50:22.578Z,18.55
2022-10-03T15:55:22.649Z,18.41
2022-10-03T16:00:22.470Z,18.18
2022-10-03T16:05:22.411Z,18.01
2022-10-03T16:10:22.357Z,17.90
2022-10-03T16:15:22.329Z,17.77
2022-10-03T16:20:22.250Z,17.69
2022-10-03T16:25:29.432Z,17.61
2022-10-03T16:30:22.143Z,17.45
2022-10-03T16:35:22.101Z,17.31
2022-10-03T16:40:22.036Z,17.19
2022-10-03T16:45:22.074Z,16.88
2022-10-03T16:50:21.924Z,16.70
2022-10-03T16:55:21.885Z,16.41
2022-10-03T17:00:21.813Z,16.15
2022-10-03T17:05:21.761Z,15.90
2022-10-03T17:10:21.706Z,15.67
2022-10-03T17:15:21.668Z,15.56
2022-10-03T17:20:21.591Z,15.46
2022-10-03T17:25:21.533Z,15.33
2022-10-03T17:30:21.489Z,15.21
2022-10-03T17:35:21.435Z,15.05
2022-10-03T17:40:21.378Z,14.83
2022-10-03T17:45:21.307Z,14.72
2022-10-03T17:50:21.253Z,14.64
2022-10-03T17:55:21.215Z,14.59
2022-10-03T18:00:21.157Z,14.50
2022-10-03T18:05:21.092Z,14.38
2022-10-03T18:10:21.033Z,14.27
2022-10-03T18:15:21.011Z,14.22
2022-10-03T18:20:21.055Z,14.21
2022-10-03T18:25:20.873Z,14.07
2022-10-03T18:30:20.813Z,14.00
2022-10-03T18:35:20.789Z,13.97
2022-10-03T18:40:20.691Z,13.87
2022-10-03T18:45:20.651Z,13.85
2022-10-03T18:50:20.608Z,13.79
2022-10-03T18:55:20.549Z,13.69
2022-10-03T19:00:20.494Z,13.63
2022-10-03T19:05:20.444Z,13.69
2022-10-03T19:10:20.376Z,13.81
2022-10-03T19:15:20.352Z,13.87
2022-10-03T19:20:20.361Z,14.25
2022-10-03T19:25:20.200Z,14.21
2022-10-03T19:30:20.157Z,14.25
2022-10-03T19:35:20.228Z,14.09
2022-10-03T19:40:20.043Z,14.08
2022-10-03T19:45:19.994Z,14.37
2022-10-03T19:50:19.953Z,13.97
2022-10-03T19:55:19.897Z,13.87
2022-10-03T20:00:19.835Z,14.34
2022-10-03T20:05:19.779Z,14.23
2022-10-03T20:10:19.726Z,14.05
2022-10-03T20:15:19.688Z,14.37
2022-10-03T20:20:19.616Z,14.18
2022-10-03T20:25:19.560Z,13.88
2022-10-03T20:30:19.507Z,13.66
2022-10-03T20:35:19.474Z,13.32
2022-10-03T20:40:19.404Z,13.35
2022-10-03T20:45:19.345Z,13.32
2022-10-03T20:50:19.293Z,13.28
2022-10-03T20:55:19.254Z,13.01
2022-10-03T21:00:19.181Z,13.20
2022-10-03T21:05:19.122Z,13.07
2022-10-03T21:10:19.072Z,12.68
2022-10-03T21:15:19.176Z,12.77
2022-10-03T21:20:19.004Z,12.65
2022-10-03T21:25:18.915Z,12.31
2022-10-03T21:30:18.858Z,12.58
2022-10-03T21:35:18.829Z,12.47
2022-10-03T21:40:18.749Z,12.40
2022-10-03T21:45:18.692Z,12.38
2022-10-03T21:50:18.643Z,12.47
2022-10-03T21:55:18.610Z,12.32
2022-10-03T22:00:18.541Z,12.42
2022-10-03T22:05:18.483Z,12.75
2022-10-03T22:10:21.477Z,12.62
2022-10-03T22:15:18.497Z,12.65
2022-10-03T22:20:18.323Z,12.89
2022-10-03T22:25:18.269Z,12.84
2022-10-03T22:30:25.267Z,12.94
2022-10-03T22:35:18.163Z,13.01
2022-10-03T22:40:18.114Z,12.81
2022-10-03T22:45:18.060Z,12.52
2022-10-03T22:50:18.116Z,12.60
2022-10-03T22:55:17.945Z,12.36
2022-10-03T23:00:17.892Z,12.25
2022-10-03T23:05:17.839Z,11.97
2022-10-03T23:10:17.806Z,12.14
2022-10-03T23:15:17.736Z,12.01
2022-10-03T23:20:17.676Z,12.22
2022-10-03T23:25:17.624Z,12.33
